sensor_id;sensor_type;location;lat;lon;timestamp;P1;durP1;ratioP1;P2;durP2;ratioP2
67074;SDS011;53990;50.334;18.640;2023-03-01T00:01:41;171.60;;;84.00;;
67074;SDS011;53990;50.334;18.640;2023-03-01T00:04:09;176.00;;;85.50;;
67074;SDS011;53990;50.334;18.640;2023-03-01T00:06:36;153.60;;;77.90;;
67074;SDS011;53990;50.334;18.640;2023-03-01T00:09:05;161.20;;;77.30;;
67074;SDS011;53990;50.334;18.640;2023-03-01T00:11:33;160.00;;;77.60;;
67074;SDS011;53990;50.334;18.640;2023-03-01T00:14:02;141.30;;;70.90;;
67074;SDS011;53990;50.334;18.640;2023-03-01T00:16:34;135.60;;;70.30;;
67074;SDS011;53990;50.334;18.640;2023-03-01T00:19:02;119.50;;;59.20;;
67074;SDS011;53990;50.334;18.640;2023-03-01T00:21:31;130.30;;;63.20;;
67074;SDS011;53990;50.334;18.640;2023-03-01T00:23:58;114.20;;;57.80;;
67074;SDS011;53990;50.334;18.640;2023-03-01T00:26:26;110.40;;;55.80;;
67074;SDS011;53990;50.334;18.640;2023-03-01T00:28:54;106.60;;;55.20;;
67074;SDS011;53990;50.334;18.640;2023-03-01T00:31:26;111.40;;;56.90;;
67074;SDS011;53990;50.334;18.640;2023-03-01T00:33:58;123.70;;;61.80;;
67074;SDS011;53990;50.334;18.640;2023-03-01T00:36:29;128.80;;;64.20;;
67074;SDS011;53990;50.334;18.640;2023-03-01T00:38:57;123.10;;;62.20;;
67074;SDS011;53990;50.334;18.640;2023-03-01T00:41:25;126.90;;;65.50;;
67074;SDS011;53990;50.334;18.640;2023-03-01T00:43:55;150.20;;;70.30;;
67074;SDS011;53990;50.334;18.640;2023-03-01T00:46:26;153.00;;;74.80;;
67074;SDS011;53990;50.334;18.640;2023-03-01T00:48:54;150.20;;;73.30;;
67074;SDS011;53990;50.334;18.640;2023-03-01T00:51:26;151.30;;;74.60;;
67074;SDS011;53990;50.334;18.640;2023-03-01T00:53:57;152.30;;;73.00;;
67074;SDS011;53990;50.334;18.640;2023-03-01T00:56:25;156.20;;;76.10;;
67074;SDS011;53990;50.334;18.640;2023-03-01T00:58:54;158.10;;;75.60;;
67074;SDS011;53990;50.334;18.640;2023-03-01T01:01:25;146.60;;;69.50;;
67074;SDS011;53990;50.334;18.640;2023-03-01T01:04:06;140.30;;;69.80;;
67074;SDS011;53990;50.334;18.640;2023-03-01T01:06:38;144.70;;;68.50;;
67074;SDS011;53990;50.334;18.640;2023-03-01T01:09:06;143.50;;;69.50;;
67074;SDS011;53990;50.334;18.640;2023-03-01T01:11:37;144.90;;;68.40;;
67074;SDS011;53990;50.334;18.640;2023-03-01T01:14:05;148.60;;;70.30;;
67074;SDS011;53990;50.334;18.640;2023-03-01T01:16:33;140.70;;;67.80;;
67074;SDS011;53990;50.334;18.640;2023-03-01T01:19:02;136.70;;;68.00;;
67074;SDS011;53990;50.334;18.640;2023-03-01T01:21:29;136.50;;;68.10;;
67074;SDS011;53990;50.334;18.640;2023-03-01T01:23:58;136.10;;;67.20;;
67074;SDS011;53990;50.334;18.640;2023-03-01T01:26:33;140.00;;;71.20;;
67074;SDS011;53990;50.334;18.640;2023-03-01T01:29:02;150.90;;;73.40;;
67074;SDS011;53990;50.334;18.640;2023-03-01T01:31:30;158.20;;;75.50;;
67074;SDS011;53990;50.334;18.640;2023-03-01T01:34:00;170.10;;;83.20;;
67074;SDS011;53990;50.334;18.640;2023-03-01T01:36:28;149.60;;;72.80;;
67074;SDS011;53990;50.334;18.640;2023-03-01T01:38:56;159.20;;;77.10;;
67074;SDS011;53990;50.334;18.640;2023-03-01T01:41:25;161.10;;;78.30;;
67074;SDS011;53990;50.334;18.640;2023-03-01T01:49:35;164.30;;;75.30;;
67074;SDS011;53990;50.334;18.640;2023-03-01T01:52:20;166.30;;;78.70;;
67074;SDS011;53990;50.334;18.640;2023-03-01T01:54:50;165.10;;;77.60;;
67074;SDS011;53990;50.334;18.640;2023-03-01T01:57:23;158.80;;;73.80;;
67074;SDS011;53990;50.334;18.640;2023-03-01T01:59:55;148.20;;;70.50;;
67074;SDS011;53990;50.334;18.640;2023-03-01T02:02:23;147.90;;;70.70;;
67074;SDS011;53990;50.334;18.640;2023-03-01T02:04:58;160.80;;;74.80;;
67074;SDS011;53990;50.334;18.640;2023-03-01T02:07:26;163.20;;;74.40;;
67074;SDS011;53990;50.334;18.640;2023-03-01T02:09:54;150.90;;;75.10;;
67074;SDS011;53990;50.334;18.640;2023-03-01T02:12:24;160.30;;;75.70;;
67074;SDS011;53990;50.334;18.640;2023-03-01T02:14:53;161.50;;;75.10;;
67074;SDS011;53990;50.334;18.640;2023-03-01T02:17:21;140.20;;;69.10;;
67074;SDS011;53990;50.334;18.640;2023-03-01T02:20:17;139.60;;;65.30;;
67074;SDS011;53990;50.334;18.640;2023-03-01T02:22:48;129.90;;;65.50;;
67074;SDS011;53990;50.334;18.640;2023-03-01T02:30:47;132.80;;;64.60;;
67074;SDS011;53990;50.334;18.640;2023-03-01T02:33:36;124.70;;;62.30;;
67074;SDS011;53990;50.334;18.640;2023-03-01T02:38:56;137.00;;;66.70;;
67074;SDS011;53990;50.334;18.640;2023-03-01T02:41:26;138.70;;;67.20;;
67074;SDS011;53990;50.334;18.640;2023-03-01T02:43:55;134.80;;;66.70;;
67074;SDS011;53990;50.334;18.640;2023-03-01T02:46:24;131.40;;;67.60;;
67074;SDS011;53990;50.334;18.640;2023-03-01T02:48:55;126.70;;;62.30;;
67074;SDS011;53990;50.334;18.640;2023-03-01T02:54:26;132.60;;;66.50;;
67074;SDS011;53990;50.334;18.640;2023-03-01T02:56:56;119.60;;;63.30;;
67074;SDS011;53990;50.334;18.640;2023-03-01T02:59:27;125.60;;;61.30;;
67074;SDS011;53990;50.334;18.640;2023-03-01T03:01:57;138.80;;;66.20;;
67074;SDS011;53990;50.334;18.640;2023-03-01T03:04:24;124.10;;;62.80;;
67074;SDS011;53990;50.334;18.640;2023-03-01T03:06:51;125.00;;;64.20;;
67074;SDS011;53990;50.334;18.640;2023-03-01T03:09:19;127.80;;;63.20;;
67074;SDS011;53990;50.334;18.640;2023-03-01T03:11:47;129.90;;;64.10;;
67074;SDS011;53990;50.334;18.640;2023-03-01T03:14:17;123.50;;;62.00;;
67074;SDS011;53990;50.334;18.640;2023-03-01T03:16:47;121.30;;;61.10;;
67074;SDS011;53990;50.334;18.640;2023-03-01T03:19:17;122.70;;;62.10;;
67074;SDS011;53990;50.334;18.640;2023-03-01T03:21:45;121.00;;;61.60;;
67074;SDS011;53990;50.334;18.640;2023-03-01T03:24:12;114.30;;;59.90;;
67074;SDS011;53990;50.334;18.640;2023-03-01T03:26:40;113.50;;;58.80;;
67074;SDS011;53990;50.334;18.640;2023-03-01T03:29:07;112.50;;;57.70;;
67074;SDS011;53990;50.334;18.640;2023-03-01T03:31:35;117.70;;;59.30;;
67074;SDS011;53990;50.334;18.640;2023-03-01T03:34:02;118.20;;;58.70;;
67074;SDS011;53990;50.334;18.640;2023-03-01T03:36:29;112.20;;;58.60;;
67074;SDS011;53990;50.334;18.640;2023-03-01T03:38:57;119.10;;;57.90;;
67074;SDS011;53990;50.334;18.640;2023-03-01T03:41:24;112.80;;;56.40;;
67074;SDS011;53990;50.334;18.640;2023-03-01T03:43:53;108.00;;;53.40;;
67074;SDS011;53990;50.334;18.640;2023-03-01T03:46:20;100.90;;;50.70;;
67074;SDS011;53990;50.334;18.640;2023-03-01T03:48:48;102.70;;;49.70;;
67074;SDS011;53990;50.334;18.640;2023-03-01T03:51:17;94.20;;;48.90;;
67074;SDS011;53990;50.334;18.640;2023-03-01T03:53:45;97.00;;;49.80;;
67074;SDS011;53990;50.334;18.640;2023-03-01T03:56:13;99.20;;;50.40;;
67074;SDS011;53990;50.334;18.640;2023-03-01T03:58:41;99.00;;;49.70;;
67074;SDS011;53990;50.334;18.640;2023-03-01T04:01:08;99.80;;;50.00;;
67074;SDS011;53990;50.334;18.640;2023-03-01T04:03:36;94.10;;;48.60;;
67074;SDS011;53990;50.334;18.640;2023-03-01T04:06:03;93.30;;;48.00;;
67074;SDS011;53990;50.334;18.640;2023-03-01T04:08:32;96.80;;;47.10;;
67074;SDS011;53990;50.334;18.640;2023-03-01T04:11:02;84.60;;;44.30;;
67074;SDS011;53990;50.334;18.640;2023-03-01T04:13:52;95.50;;;47.00;;
67074;SDS011;53990;50.334;18.640;2023-03-01T04:16:20;95.60;;;47.80;;
67074;SDS011;53990;50.334;18.640;2023-03-01T04:18:50;88.60;;;48.10;;
67074;SDS011;53990;50.334;18.640;2023-03-01T04:21:28;86.40;;;47.80;;
67074;SDS011;53990;50.334;18.640;2023-03-01T04:23:55;98.40;;;53.70;;
67074;SDS011;53990;50.334;18.640;2023-03-01T04:26:24;93.80;;;50.00;;
67074;SDS011;53990;50.334;18.640;2023-03-01T04:28:51;87.10;;;50.30;;
67074;SDS011;53990;50.334;18.640;2023-03-01T04:31:19;92.30;;;53.00;;
67074;SDS011;53990;50.334;18.640;2023-03-01T04:33:54;88.60;;;51.50;;
67074;SDS011;53990;50.334;18.640;2023-03-01T04:36:24;86.40;;;45.70;;
67074;SDS011;53990;50.334;18.640;2023-03-01T04:38:52;82.40;;;45.10;;
67074;SDS011;53990;50.334;18.640;2023-03-01T04:41:22;85.20;;;42.80;;
67074;SDS011;53990;50.334;18.640;2023-03-01T04:43:51;81.40;;;44.60;;
67074;SDS011;53990;50.334;18.640;2023-03-01T04:46:20;87.30;;;44.30;;
67074;SDS011;53990;50.334;18.640;2023-03-01T04:48:47;78.80;;;42.40;;
67074;SDS011;53990;50.334;18.640;2023-03-01T04:51:15;77.40;;;41.40;;
67074;SDS011;53990;50.334;18.640;2023-03-01T04:53:43;81.00;;;39.90;;
67074;SDS011;53990;50.334;18.640;2023-03-01T04:56:12;76.80;;;39.70;;
67074;SDS011;53990;50.334;18.640;2023-03-01T04:58:45;76.20;;;38.00;;
67074;SDS011;53990;50.334;18.640;2023-03-01T05:01:33;68.10;;;36.10;;
67074;SDS011;53990;50.334;18.640;2023-03-01T05:04:03;70.90;;;37.30;;
67074;SDS011;53990;50.334;18.640;2023-03-01T05:06:34;66.90;;;35.50;;
67074;SDS011;53990;50.334;18.640;2023-03-01T05:09:02;74.60;;;38.30;;
67074;SDS011;53990;50.334;18.640;2023-03-01T05:11:29;71.30;;;39.00;;
67074;SDS011;53990;50.334;18.640;2023-03-01T05:14:07;73.80;;;38.00;;
67074;SDS011;53990;50.334;18.640;2023-03-01T05:16:35;76.90;;;39.40;;
67074;SDS011;53990;50.334;18.640;2023-03-01T05:19:04;80.80;;;41.30;;
67074;SDS011;53990;50.334;18.640;2023-03-01T05:21:38;79.50;;;42.70;;
67074;SDS011;53990;50.334;18.640;2023-03-01T05:24:26;77.80;;;41.60;;
67074;SDS011;53990;50.334;18.640;2023-03-01T05:26:56;85.20;;;42.00;;
67074;SDS011;53990;50.334;18.640;2023-03-01T05:29:26;79.70;;;40.40;;
67074;SDS011;53990;50.334;18.640;2023-03-01T05:31:55;71.30;;;36.70;;
67074;SDS011;53990;50.334;18.640;2023-03-01T05:34:29;73.10;;;37.90;;
67074;SDS011;53990;50.334;18.640;2023-03-01T05:36:58;75.80;;;37.90;;
67074;SDS011;53990;50.334;18.640;2023-03-01T05:39:27;75.20;;;38.40;;
67074;SDS011;53990;50.334;18.640;2023-03-01T05:42:00;67.60;;;36.20;;
67074;SDS011;53990;50.334;18.640;2023-03-01T05:44:29;77.00;;;38.40;;
67074;SDS011;53990;50.334;18.640;2023-03-01T05:46:57;75.60;;;38.30;;
67074;SDS011;53990;50.334;18.640;2023-03-01T05:49:24;74.30;;;38.80;;
67074;SDS011;53990;50.334;18.640;2023-03-01T05:51:53;70.40;;;38.30;;
67074;SDS011;53990;50.334;18.640;2023-03-01T05:54:21;75.70;;;39.30;;
67074;SDS011;53990;50.334;18.640;2023-03-01T05:56:49;74.00;;;39.40;;
67074;SDS011;53990;50.334;18.640;2023-03-01T05:59:17;81.70;;;37.90;;
67074;SDS011;53990;50.334;18.640;2023-03-01T06:01:52;76.90;;;38.10;;
67074;SDS011;53990;50.334;18.640;2023-03-01T06:04:21;80.20;;;42.60;;
67074;SDS011;53990;50.334;18.640;2023-03-01T06:06:49;103.60;;;54.80;;
67074;SDS011;53990;50.334;18.640;2023-03-01T06:09:16;126.80;;;62.30;;
67074;SDS011;53990;50.334;18.640;2023-03-01T06:11:44;118.80;;;57.70;;
67074;SDS011;53990;50.334;18.640;2023-03-01T06:14:13;113.40;;;56.70;;
67074;SDS011;53990;50.334;18.640;2023-03-01T06:16:41;112.90;;;55.90;;
67074;SDS011;53990;50.334;18.640;2023-03-01T06:19:10;115.80;;;56.80;;
67074;SDS011;53990;50.334;18.640;2023-03-01T06:21:38;113.20;;;56.30;;
67074;SDS011;53990;50.334;18.640;2023-03-01T06:24:07;112.90;;;55.60;;
67074;SDS011;53990;50.334;18.640;2023-03-01T06:26:35;103.30;;;52.90;;
67074;SDS011;53990;50.334;18.640;2023-03-01T06:29:03;103.50;;;52.70;;
67074;SDS011;53990;50.334;18.640;2023-03-01T06:31:31;101.70;;;52.10;;
67074;SDS011;53990;50.334;18.640;2023-03-01T06:33:58;106.50;;;51.80;;
67074;SDS011;53990;50.334;18.640;2023-03-01T06:36:26;105.30;;;52.80;;
67074;SDS011;53990;50.334;18.640;2023-03-01T06:38:53;107.10;;;53.80;;
67074;SDS011;53990;50.334;18.640;2023-03-01T06:41:21;109.80;;;52.60;;
67074;SDS011;53990;50.334;18.640;2023-03-01T06:43:48;87.10;;;44.90;;
67074;SDS011;53990;50.334;18.640;2023-03-01T06:46:15;80.10;;;44.90;;
67074;SDS011;53990;50.334;18.640;2023-03-01T06:48:43;90.70;;;44.50;;
67074;SDS011;53990;50.334;18.640;2023-03-01T06:51:10;89.90;;;45.60;;
67074;SDS011;53990;50.334;18.640;2023-03-01T06:53:38;94.30;;;48.60;;
67074;SDS011;53990;50.334;18.640;2023-03-01T06:56:06;145.90;;;72.90;;
67074;SDS011;53990;50.334;18.640;2023-03-01T06:58:33;171.50;;;84.60;;
67074;SDS011;53990;50.334;18.640;2023-03-01T07:01:05;180.90;;;88.70;;
67074;SDS011;53990;50.334;18.640;2023-03-01T07:03:33;196.20;;;91.30;;
67074;SDS011;53990;50.334;18.640;2023-03-01T07:06:00;163.90;;;80.50;;
67074;SDS011;53990;50.334;18.640;2023-03-01T07:08:27;157.10;;;75.10;;
67074;SDS011;53990;50.334;18.640;2023-03-01T07:10:57;152.70;;;75.50;;
67074;SDS011;53990;50.334;18.640;2023-03-01T07:13:25;175.00;;;80.10;;
67074;SDS011;53990;50.334;18.640;2023-03-01T07:15:52;182.80;;;83.90;;
67074;SDS011;53990;50.334;18.640;2023-03-01T07:18:20;205.90;;;90.10;;
67074;SDS011;53990;50.334;18.640;2023-03-01T07:20:47;181.70;;;83.80;;
67074;SDS011;53990;50.334;18.640;2023-03-01T07:23:14;152.80;;;71.40;;
67074;SDS011;53990;50.334;18.640;2023-03-01T07:25:42;161.80;;;76.00;;
67074;SDS011;53990;50.334;18.640;2023-03-01T07:28:09;124.90;;;61.30;;
67074;SDS011;53990;50.334;18.640;2023-03-01T07:30:37;120.80;;;60.70;;
67074;SDS011;53990;50.334;18.640;2023-03-01T07:33:04;117.00;;;60.00;;
67074;SDS011;53990;50.334;18.640;2023-03-01T07:35:31;113.70;;;59.10;;
67074;SDS011;53990;50.334;18.640;2023-03-01T07:38:00;110.10;;;54.20;;
67074;SDS011;53990;50.334;18.640;2023-03-01T07:40:27;99.60;;;51.60;;
67074;SDS011;53990;50.334;18.640;2023-03-01T07:42:56;106.60;;;53.80;;
67074;SDS011;53990;50.334;18.640;2023-03-01T07:45:25;109.90;;;55.80;;
67074;SDS011;53990;50.334;18.640;2023-03-01T07:47:52;114.80;;;57.80;;
67074;SDS011;53990;50.334;18.640;2023-03-01T07:50:20;122.00;;;60.50;;
67074;SDS011;53990;50.334;18.640;2023-03-01T07:52:48;126.70;;;60.90;;
67074;SDS011;53990;50.334;18.640;2023-03-01T07:55:16;125.50;;;62.60;;
67074;SDS011;53990;50.334;18.640;2023-03-01T07:57:43;126.00;;;61.90;;
67074;SDS011;53990;50.334;18.640;2023-03-01T08:00:17;119.10;;;61.70;;
67074;SDS011;53990;50.334;18.640;2023-03-01T08:02:45;120.70;;;60.60;;
67074;SDS011;53990;50.334;18.640;2023-03-01T08:05:12;125.50;;;61.10;;
67074;SDS011;53990;50.334;18.640;2023-03-01T08:07:40;120.90;;;63.50;;
67074;SDS011;53990;50.334;18.640;2023-03-01T08:10:08;119.20;;;63.30;;
67074;SDS011;53990;50.334;18.640;2023-03-01T08:12:35;120.20;;;61.30;;
67074;SDS011;53990;50.334;18.640;2023-03-01T08:15:03;112.80;;;58.80;;
67074;SDS011;53990;50.334;18.640;2023-03-01T08:17:30;106.60;;;56.80;;
67074;SDS011;53990;50.334;18.640;2023-03-01T08:19:58;108.70;;;55.50;;
67074;SDS011;53990;50.334;18.640;2023-03-01T08:22:25;110.70;;;56.60;;
67074;SDS011;53990;50.334;18.640;2023-03-01T08:24:52;116.30;;;59.10;;
67074;SDS011;53990;50.334;18.640;2023-03-01T08:27:20;121.50;;;60.20;;
67074;SDS011;53990;50.334;18.640;2023-03-01T08:29:47;129.50;;;63.40;;
67074;SDS011;53990;50.334;18.640;2023-03-01T08:32:14;117.60;;;61.00;;
67074;SDS011;53990;50.334;18.640;2023-03-01T08:34:41;117.20;;;59.40;;
67074;SDS011;53990;50.334;18.640;2023-03-01T08:37:09;123.50;;;59.10;;
67074;SDS011;53990;50.334;18.640;2023-03-01T08:39:37;112.90;;;55.80;;
67074;SDS011;53990;50.334;18.640;2023-03-01T08:42:04;119.10;;;57.10;;
67074;SDS011;53990;50.334;18.640;2023-03-01T08:44:35;116.90;;;57.30;;
67074;SDS011;53990;50.334;18.640;2023-03-01T08:47:02;119.60;;;56.90;;
67074;SDS011;53990;50.334;18.640;2023-03-01T08:49:31;99.40;;;50.50;;
67074;SDS011;53990;50.334;18.640;2023-03-01T08:52:01;91.30;;;47.90;;
67074;SDS011;53990;50.334;18.640;2023-03-01T08:54:29;103.30;;;52.70;;
67074;SDS011;53990;50.334;18.640;2023-03-01T08:56:57;103.90;;;54.20;;
67074;SDS011;53990;50.334;18.640;2023-03-01T08:59:26;107.70;;;54.40;;
67074;SDS011;53990;50.334;18.640;2023-03-01T09:01:53;92.30;;;49.20;;
67074;SDS011;53990;50.334;18.640;2023-03-01T09:04:21;83.20;;;45.10;;
67074;SDS011;53990;50.334;18.640;2023-03-01T09:06:49;69.40;;;38.10;;
67074;SDS011;53990;50.334;18.640;2023-03-01T09:09:17;97.80;;;53.20;;
67074;SDS011;53990;50.334;18.640;2023-03-01T09:11:45;80.00;;;43.30;;
67074;SDS011;53990;50.334;18.640;2023-03-01T09:14:13;61.90;;;34.80;;
67074;SDS011;53990;50.334;18.640;2023-03-01T09:20:16;42.00;;;22.10;;
67074;SDS011;53990;50.334;18.640;2023-03-01T09:31:49;36.30;;;20.90;;
67074;SDS011;53990;50.334;18.640;2023-03-01T09:34:17;30.90;;;19.80;;
67074;SDS011;53990;50.334;18.640;2023-03-01T09:36:50;35.60;;;20.80;;
67074;SDS011;53990;50.334;18.640;2023-03-01T09:39:18;30.50;;;19.70;;
67074;SDS011;53990;50.334;18.640;2023-03-01T09:41:49;31.60;;;19.60;;
67074;SDS011;53990;50.334;18.640;2023-03-01T09:44:40;29.60;;;18.80;;
67074;SDS011;53990;50.334;18.640;2023-03-01T09:47:36;32.10;;;21.30;;
67074;SDS011;53990;50.334;18.640;2023-03-01T09:50:09;37.20;;;23.50;;
67074;SDS011;53990;50.334;18.640;2023-03-01T09:55:31;39.20;;;25.20;;
67074;SDS011;53990;50.334;18.640;2023-03-01T09:58:39;42.40;;;25.90;;
67074;SDS011;53990;50.334;18.640;2023-03-01T10:07:15;41.40;;;26.20;;
67074;SDS011;53990;50.334;18.640;2023-03-01T10:09:45;46.10;;;29.00;;
67074;SDS011;53990;50.334;18.640;2023-03-01T10:12:23;46.20;;;27.70;;
67074;SDS011;53990;50.334;18.640;2023-03-01T10:15:02;45.50;;;28.60;;
67074;SDS011;53990;50.334;18.640;2023-03-01T10:17:51;42.90;;;27.90;;
67074;SDS011;53990;50.334;18.640;2023-03-01T10:23:34;48.00;;;27.20;;
67074;SDS011;53990;50.334;18.640;2023-03-01T10:26:15;40.30;;;25.10;;
67074;SDS011;53990;50.334;18.640;2023-03-01T10:29:30;43.00;;;27.20;;
67074;SDS011;53990;50.334;18.640;2023-03-01T10:32:02;41.70;;;25.90;;
67074;SDS011;53990;50.334;18.640;2023-03-01T10:34:36;38.50;;;25.60;;
67074;SDS011;53990;50.334;18.640;2023-03-01T10:37:17;39.60;;;25.20;;
67074;SDS011;53990;50.334;18.640;2023-03-01T10:40:00;40.00;;;24.20;;
67074;SDS011;53990;50.334;18.640;2023-03-01T10:42:49;38.80;;;23.80;;
67074;SDS011;53990;50.334;18.640;2023-03-01T10:48:22;35.90;;;23.20;;
67074;SDS011;53990;50.334;18.640;2023-03-01T10:53:42;38.70;;;24.10;;
67074;SDS011;53990;50.334;18.640;2023-03-01T10:56:12;36.70;;;24.10;;
67074;SDS011;53990;50.334;18.640;2023-03-01T11:01:27;41.90;;;24.20;;
67074;SDS011;53990;50.334;18.640;2023-03-01T11:06:39;39.40;;;23.00;;
67074;SDS011;53990;50.334;18.640;2023-03-01T11:09:18;39.30;;;24.30;;
67074;SDS011;53990;50.334;18.640;2023-03-01T11:11:54;40.50;;;23.60;;
67074;SDS011;53990;50.334;18.640;2023-03-01T11:14:25;37.10;;;21.70;;
67074;SDS011;53990;50.334;18.640;2023-03-01T11:17:05;35.90;;;22.20;;
67074;SDS011;53990;50.334;18.640;2023-03-01T11:19:38;35.00;;;21.90;;
67074;SDS011;53990;50.334;18.640;2023-03-01T11:22:17;33.60;;;22.40;;
67074;SDS011;53990;50.334;18.640;2023-03-01T11:24:50;34.20;;;21.30;;
67074;SDS011;53990;50.334;18.640;2023-03-01T11:27:22;31.50;;;20.50;;
67074;SDS011;53990;50.334;18.640;2023-03-01T11:30:01;30.20;;;20.50;;
67074;SDS011;53990;50.334;18.640;2023-03-01T11:33:05;32.60;;;21.30;;
67074;SDS011;53990;50.334;18.640;2023-03-01T11:35:29;31.30;;;21.10;;
67074;SDS011;53990;50.334;18.640;2023-03-01T11:38:15;30.80;;;21.50;;
67074;SDS011;53990;50.334;18.640;2023-03-01T11:40:47;26.40;;;21.00;;
67074;SDS011;53990;50.334;18.640;2023-03-01T11:43:26;26.60;;;20.90;;
67074;SDS011;53990;50.334;18.640;2023-03-01T11:52:42;27.80;;;20.90;;
67074;SDS011;53990;50.334;18.640;2023-03-01T11:58:06;25.80;;;20.60;;
67074;SDS011;53990;50.334;18.640;2023-03-01T12:01:08;25.30;;;20.30;;
67074;SDS011;53990;50.334;18.640;2023-03-01T12:03:46;25.80;;;20.70;;
67074;SDS011;53990;50.334;18.640;2023-03-01T12:09:26;25.80;;;20.80;;
67074;SDS011;53990;50.334;18.640;2023-03-01T12:16:00;24.20;;;19.00;;
67074;SDS011;53990;50.334;18.640;2023-03-01T12:24:02;25.30;;;19.50;;
67074;SDS011;53990;50.334;18.640;2023-03-01T12:26:35;24.70;;;20.50;;
67074;SDS011;53990;50.334;18.640;2023-03-01T12:31:59;24.60;;;21.40;;
67074;SDS011;53990;50.334;18.640;2023-03-01T12:34:43;22.20;;;19.30;;
67074;SDS011;53990;50.334;18.640;2023-03-01T12:37:25;25.40;;;19.90;;
67074;SDS011;53990;50.334;18.640;2023-03-01T12:40:19;22.50;;;19.70;;
67074;SDS011;53990;50.334;18.640;2023-03-01T12:50:45;23.20;;;19.00;;
67074;SDS011;53990;50.334;18.640;2023-03-01T12:53:35;22.20;;;18.80;;
67074;SDS011;53990;50.334;18.640;2023-03-01T12:56:17;20.90;;;18.60;;
67074;SDS011;53990;50.334;18.640;2023-03-01T12:59:00;21.10;;;19.00;;
67074;SDS011;53990;50.334;18.640;2023-03-01T13:01:49;23.40;;;19.60;;
67074;SDS011;53990;50.334;18.640;2023-03-01T13:04:22;20.80;;;18.20;;
67074;SDS011;53990;50.334;18.640;2023-03-01T13:07:03;21.00;;;18.80;;
67074;SDS011;53990;50.334;18.640;2023-03-01T13:09:40;21.60;;;19.00;;
67074;SDS011;53990;50.334;18.640;2023-03-01T13:17:54;21.40;;;19.10;;
67074;SDS011;53990;50.334;18.640;2023-03-01T13:20:34;20.70;;;18.40;;
67074;SDS011;53990;50.334;18.640;2023-03-01T13:34:00;24.30;;;21.00;;
67074;SDS011;53990;50.334;18.640;2023-03-01T13:46:46;25.70;;;21.40;;
67074;SDS011;53990;50.334;18.640;2023-03-01T13:53:06;24.30;;;20.90;;
67074;SDS011;53990;50.334;18.640;2023-03-01T13:55:45;24.40;;;20.20;;
67074;SDS011;53990;50.334;18.640;2023-03-01T13:58:33;24.90;;;21.20;;
67074;SDS011;53990;50.334;18.640;2023-03-01T14:01:32;27.60;;;22.80;;
67074;SDS011;53990;50.334;18.640;2023-03-01T14:04:00;25.20;;;21.80;;
67074;SDS011;53990;50.334;18.640;2023-03-01T14:06:32;29.60;;;23.10;;
67074;SDS011;53990;50.334;18.640;2023-03-01T14:09:16;27.10;;;20.70;;
67074;SDS011;53990;50.334;18.640;2023-03-01T14:12:51;27.70;;;20.20;;
67074;SDS011;53990;50.334;18.640;2023-03-01T14:14:59;27.20;;;20.20;;
67074;SDS011;53990;50.334;18.640;2023-03-01T14:17:40;27.90;;;20.60;;
67074;SDS011;53990;50.334;18.640;2023-03-01T14:20:28;30.00;;;22.80;;
67074;SDS011;53990;50.334;18.640;2023-03-01T14:25:32;33.00;;;23.80;;
67074;SDS011;53990;50.334;18.640;2023-03-01T14:30:45;27.80;;;20.00;;
67074;SDS011;53990;50.334;18.640;2023-03-01T14:33:31;26.70;;;18.40;;
67074;SDS011;53990;50.334;18.640;2023-03-01T14:36:06;25.80;;;17.20;;
67074;SDS011;53990;50.334;18.640;2023-03-01T14:38:36;23.90;;;17.80;;
67074;SDS011;53990;50.334;18.640;2023-03-01T14:41:22;24.10;;;17.90;;
67074;SDS011;53990;50.334;18.640;2023-03-01T14:43:53;23.80;;;17.40;;
67074;SDS011;53990;50.334;18.640;2023-03-01T14:46:24;25.50;;;17.10;;
67074;SDS011;53990;50.334;18.640;2023-03-01T14:48:55;25.90;;;18.20;;
67074;SDS011;53990;50.334;18.640;2023-03-01T14:51:25;25.50;;;17.70;;
67074;SDS011;53990;50.334;18.640;2023-03-01T14:53:52;24.70;;;17.50;;
67074;SDS011;53990;50.334;18.640;2023-03-01T14:56:20;26.80;;;18.50;;
67074;SDS011;53990;50.334;18.640;2023-03-01T14:58:52;26.10;;;17.50;;
67074;SDS011;53990;50.334;18.640;2023-03-01T15:01:21;27.50;;;17.80;;
67074;SDS011;53990;50.334;18.640;2023-03-01T15:03:49;24.60;;;17.60;;
67074;SDS011;53990;50.334;18.640;2023-03-01T15:06:20;29.30;;;18.80;;
67074;SDS011;53990;50.334;18.640;2023-03-01T15:08:51;26.70;;;18.20;;
67074;SDS011;53990;50.334;18.640;2023-03-01T15:11:29;25.30;;;18.00;;
67074;SDS011;53990;50.334;18.640;2023-03-01T15:13:57;26.30;;;17.80;;
67074;SDS011;53990;50.334;18.640;2023-03-01T15:18:57;25.00;;;16.80;;
67074;SDS011;53990;50.334;18.640;2023-03-01T15:21:30;22.60;;;15.90;;
67074;SDS011;53990;50.334;18.640;2023-03-01T15:26:31;23.80;;;15.40;;
67074;SDS011;53990;50.334;18.640;2023-03-01T15:29:00;25.40;;;17.40;;
67074;SDS011;53990;50.334;18.640;2023-03-01T15:31:31;25.00;;;16.90;;
67074;SDS011;53990;50.334;18.640;2023-03-01T15:34:35;22.60;;;15.90;;
67074;SDS011;53990;50.334;18.640;2023-03-01T15:37:05;21.00;;;13.90;;
67074;SDS011;53990;50.334;18.640;2023-03-01T15:39:43;19.20;;;14.30;;
67074;SDS011;53990;50.334;18.640;2023-03-01T15:48:06;20.10;;;14.40;;
67074;SDS011;53990;50.334;18.640;2023-03-01T15:50:41;23.80;;;15.10;;
67074;SDS011;53990;50.334;18.640;2023-03-01T15:53:12;21.80;;;16.00;;
67074;SDS011;53990;50.334;18.640;2023-03-01T15:55:41;20.00;;;14.70;;
67074;SDS011;53990;50.334;18.640;2023-03-01T16:00:36;25.00;;;16.30;;
67074;SDS011;53990;50.334;18.640;2023-03-01T16:03:03;23.30;;;15.90;;
67074;SDS011;53990;50.334;18.640;2023-03-01T16:05:58;27.10;;;16.90;;
67074;SDS011;53990;50.334;18.640;2023-03-01T16:08:31;23.00;;;16.00;;
67074;SDS011;53990;50.334;18.640;2023-03-01T16:11:13;25.70;;;17.50;;
67074;SDS011;53990;50.334;18.640;2023-03-01T16:13:45;26.00;;;17.20;;
67074;SDS011;53990;50.334;18.640;2023-03-01T16:16:17;39.00;;;18.70;;
67074;SDS011;53990;50.334;18.640;2023-03-01T16:18:51;31.30;;;19.90;;
67074;SDS011;53990;50.334;18.640;2023-03-01T16:21:34;26.30;;;18.10;;
67074;SDS011;53990;50.334;18.640;2023-03-01T16:24:06;29.40;;;20.00;;
67074;SDS011;53990;50.334;18.640;2023-03-01T16:26:34;30.20;;;20.30;;
67074;SDS011;53990;50.334;18.640;2023-03-01T16:29:02;30.80;;;21.30;;
67074;SDS011;53990;50.334;18.640;2023-03-01T16:31:29;38.90;;;25.30;;
67074;SDS011;53990;50.334;18.640;2023-03-01T16:34:08;35.40;;;23.70;;
67074;SDS011;53990;50.334;18.640;2023-03-01T16:36:38;38.80;;;23.90;;
67074;SDS011;53990;50.334;18.640;2023-03-01T16:39:06;36.30;;;24.10;;
67074;SDS011;53990;50.334;18.640;2023-03-01T16:42:17;42.90;;;27.30;;
67074;SDS011;53990;50.334;18.640;2023-03-01T16:44:57;44.70;;;28.90;;
67074;SDS011;53990;50.334;18.640;2023-03-01T16:47:25;51.90;;;34.20;;